sensor_id;sensor_type;location;lat;lon;timestamp;P1;durP1;ratioP1;P2;durP2;ratioP2
70132;SDS011;57495;49.922;7.966;2024-02-15T00:01:58;8.32;;;5.10;;
70132;SDS011;57495;49.922;7.966;2024-02-15T00:03:59;10.88;;;5.07;;
70132;SDS011;57495;49.922;7.966;2024-02-15T00:06:02;12.07;;;4.95;;
70132;SDS011;57495;49.922;7.966;2024-02-15T00:08:04;10.85;;;5.68;;
70132;SDS011;57495;49.922;7.966;2024-02-15T00:10:06;10.75;;;5.20;;
70132;SDS011;57495;49.922;7.966;2024-02-15T00:12:09;11.00;;;5.45;;
70132;SDS011;57495;49.922;7.966;2024-02-15T00:14:10;10.05;;;5.22;;
70132;SDS011;57495;49.922;7.966;2024-02-15T00:16:12;11.75;;;5.90;;
70132;SDS011;57495;49.922;7.966;2024-02-15T00:18:14;11.40;;;5.32;;
70132;SDS011;57495;49.922;7.966;2024-02-15T00:20:16;10.18;;;5.10;;
70132;SDS011;57495;49.922;7.966;2024-02-15T00:22:19;9.93;;;5.30;;
70132;SDS011;57495;49.922;7.966;2024-02-15T00:24:21;9.73;;;5.13;;
70132;SDS011;57495;49.922;7.966;2024-02-15T00:26:22;11.25;;;5.20;;
70132;SDS011;57495;49.922;7.966;2024-02-15T00:28:24;11.88;;;5.97;;
70132;SDS011;57495;49.922;7.966;2024-02-15T00:30:26;10.95;;;5.30;;
70132;SDS011;57495;49.922;7.966;2024-02-15T00:32:27;11.93;;;4.83;;
70132;SDS011;57495;49.922;7.966;2024-02-15T00:34:28;11.63;;;5.72;;
70132;SDS011;57495;49.922;7.966;2024-02-15T00:36:30;9.48;;;5.57;;
70132;SDS011;57495;49.922;7.966;2024-02-15T00:38:33;10.15;;;5.05;;
70132;SDS011;57495;49.922;7.966;2024-02-15T00:40:35;9.85;;;5.18;;
70132;SDS011;57495;49.922;7.966;2024-02-15T00:42:37;12.63;;;5.05;;
70132;SDS011;57495;49.922;7.966;2024-02-15T00:44:39;11.93;;;5.82;;
70132;SDS011;57495;49.922;7.966;2024-02-15T00:46:40;8.65;;;5.00;;
70132;SDS011;57495;49.922;7.966;2024-02-15T00:48:42;11.77;;;5.18;;
70132;SDS011;57495;49.922;7.966;2024-02-15T00:50:43;11.68;;;5.60;;
70132;SDS011;57495;49.922;7.966;2024-02-15T00:52:45;10.10;;;5.25;;
70132;SDS011;57495;49.922;7.966;2024-02-15T00:54:47;11.50;;;5.18;;
70132;SDS011;57495;49.922;7.966;2024-02-15T00:56:49;12.48;;;5.68;;
70132;SDS011;57495;49.922;7.966;2024-02-15T00:58:51;11.38;;;5.60;;
70132;SDS011;57495;49.922;7.966;2024-02-15T01:00:53;9.30;;;5.40;;
70132;SDS011;57495;49.922;7.966;2024-02-15T01:02:55;13.77;;;5.82;;
70132;SDS011;57495;49.922;7.966;2024-02-15T01:04:56;12.02;;;6.05;;
70132;SDS011;57495;49.922;7.966;2024-02-15T01:06:58;10.00;;;5.22;;
70132;SDS011;57495;49.922;7.966;2024-02-15T01:09:00;11.85;;;6.22;;
70132;SDS011;57495;49.922;7.966;2024-02-15T01:11:04;9.43;;;5.45;;
70132;SDS011;57495;49.922;7.966;2024-02-15T01:13:06;9.15;;;5.80;;
70132;SDS011;57495;49.922;7.966;2024-02-15T01:15:08;9.75;;;6.18;;
70132;SDS011;57495;49.922;7.966;2024-02-15T01:17:10;11.30;;;5.75;;
70132;SDS011;57495;49.922;7.966;2024-02-15T01:19:11;11.63;;;5.93;;
70132;SDS011;57495;49.922;7.966;2024-02-15T01:21:13;10.05;;;5.20;;
70132;SDS011;57495;49.922;7.966;2024-02-15T01:23:14;12.38;;;5.82;;
70132;SDS011;57495;49.922;7.966;2024-02-15T01:25:16;9.95;;;5.40;;
70132;SDS011;57495;49.922;7.966;2024-02-15T01:27:19;10.45;;;5.47;;
70132;SDS011;57495;49.922;7.966;2024-02-15T01:29:21;13.00;;;6.18;;
70132;SDS011;57495;49.922;7.966;2024-02-15T01:31:21;13.38;;;5.90;;
70132;SDS011;57495;49.922;7.966;2024-02-15T01:33:23;11.25;;;6.53;;
70132;SDS011;57495;49.922;7.966;2024-02-15T01:35:25;10.97;;;6.17;;
70132;SDS011;57495;49.922;7.966;2024-02-15T01:37:26;13.45;;;5.82;;
70132;SDS011;57495;49.922;7.966;2024-02-15T01:39:27;13.70;;;6.47;;
70132;SDS011;57495;49.922;7.966;2024-02-15T01:41:29;13.07;;;6.40;;
70132;SDS011;57495;49.922;7.966;2024-02-15T01:43:31;11.40;;;6.03;;
70132;SDS011;57495;49.922;7.966;2024-02-15T01:45:32;13.15;;;6.32;;
70132;SDS011;57495;49.922;7.966;2024-02-15T01:47:33;11.82;;;5.75;;
70132;SDS011;57495;49.922;7.966;2024-02-15T01:49:34;13.97;;;5.90;;
70132;SDS011;57495;49.922;7.966;2024-02-15T01:51:35;10.18;;;5.93;;
70132;SDS011;57495;49.922;7.966;2024-02-15T01:53:37;11.10;;;5.80;;
70132;SDS011;57495;49.922;7.966;2024-02-15T01:55:39;9.10;;;5.10;;
70132;SDS011;57495;49.922;7.966;2024-02-15T01:57:42;9.50;;;4.95;;
70132;SDS011;57495;49.922;7.966;2024-02-15T01:59:46;11.80;;;6.10;;
70132;SDS011;57495;49.922;7.966;2024-02-15T02:01:47;9.75;;;5.72;;
70132;SDS011;57495;49.922;7.966;2024-02-15T02:03:48;12.05;;;5.93;;
70132;SDS011;57495;49.922;7.966;2024-02-15T02:05:49;12.77;;;5.87;;
70132;SDS011;57495;49.922;7.966;2024-02-15T02:07:51;15.15;;;6.10;;
70132;SDS011;57495;49.922;7.966;2024-02-15T02:09:51;12.33;;;6.17;;
70132;SDS011;57495;49.922;7.966;2024-02-15T02:11:53;10.60;;;5.82;;
70132;SDS011;57495;49.922;7.966;2024-02-15T02:13:55;13.68;;;6.20;;
70132;SDS011;57495;49.922;7.966;2024-02-15T02:15:58;12.20;;;6.03;;
70132;SDS011;57495;49.922;7.966;2024-02-15T02:18:00;9.02;;;6.03;;
70132;SDS011;57495;49.922;7.966;2024-02-15T02:20:02;10.33;;;5.83;;
70132;SDS011;57495;49.922;7.966;2024-02-15T02:22:08;11.25;;;5.40;;
70132;SDS011;57495;49.922;7.966;2024-02-15T02:24:12;12.65;;;5.78;;
70132;SDS011;57495;49.922;7.966;2024-02-15T02:26:16;11.10;;;5.43;;
70132;SDS011;57495;49.922;7.966;2024-02-15T02:28:17;10.98;;;5.97;;
70132;SDS011;57495;49.922;7.966;2024-02-15T02:30:19;12.43;;;5.70;;
70132;SDS011;57495;49.922;7.966;2024-02-15T02:32:22;12.00;;;5.70;;
70132;SDS011;57495;49.922;7.966;2024-02-15T02:34:23;11.90;;;5.90;;
70132;SDS011;57495;49.922;7.966;2024-02-15T02:36:25;10.15;;;6.30;;
70132;SDS011;57495;49.922;7.966;2024-02-15T02:38:29;13.40;;;6.55;;
70132;SDS011;57495;49.922;7.966;2024-02-15T02:40:30;10.60;;;5.80;;
70132;SDS011;57495;49.922;7.966;2024-02-15T02:42:33;13.48;;;5.90;;
70132;SDS011;57495;49.922;7.966;2024-02-15T02:44:34;12.52;;;5.88;;
70132;SDS011;57495;49.922;7.966;2024-02-15T02:46:36;12.90;;;6.18;;
70132;SDS011;57495;49.922;7.966;2024-02-15T02:48:37;10.38;;;6.13;;
70132;SDS011;57495;49.922;7.966;2024-02-15T02:50:38;12.17;;;6.40;;
70132;SDS011;57495;49.922;7.966;2024-02-15T02:52:40;10.98;;;6.28;;
70132;SDS011;57495;49.922;7.966;2024-02-15T02:54:41;12.55;;;6.80;;
70132;SDS011;57495;49.922;7.966;2024-02-15T02:56:43;12.63;;;6.03;;
70132;SDS011;57495;49.922;7.966;2024-02-15T02:58:46;13.93;;;6.45;;
70132;SDS011;57495;49.922;7.966;2024-02-15T03:00:47;10.70;;;5.87;;
70132;SDS011;57495;49.922;7.966;2024-02-15T03:02:48;9.82;;;6.40;;
70132;SDS011;57495;49.922;7.966;2024-02-15T03:04:49;11.35;;;6.47;;
70132;SDS011;57495;49.922;7.966;2024-02-15T03:06:53;14.43;;;6.50;;
70132;SDS011;57495;49.922;7.966;2024-02-15T03:08:57;13.73;;;6.07;;
70132;SDS011;57495;49.922;7.966;2024-02-15T03:10:58;11.45;;;6.13;;
70132;SDS011;57495;49.922;7.966;2024-02-15T03:12:59;11.02;;;6.25;;
70132;SDS011;57495;49.922;7.966;2024-02-15T03:15:02;10.32;;;6.13;;
70132;SDS011;57495;49.922;7.966;2024-02-15T03:17:04;14.20;;;6.72;;
70132;SDS011;57495;49.922;7.966;2024-02-15T03:19:06;10.30;;;6.22;;
70132;SDS011;57495;49.922;7.966;2024-02-15T03:21:09;10.63;;;6.40;;
70132;SDS011;57495;49.922;7.966;2024-02-15T03:23:11;14.02;;;7.38;;
70132;SDS011;57495;49.922;7.966;2024-02-15T03:25:12;11.60;;;6.35;;
70132;SDS011;57495;49.922;7.966;2024-02-15T03:27:13;15.18;;;7.47;;
70132;SDS011;57495;49.922;7.966;2024-02-15T03:29:15;13.60;;;6.70;;
70132;SDS011;57495;49.922;7.966;2024-02-15T03:31:18;11.95;;;6.95;;
70132;SDS011;57495;49.922;7.966;2024-02-15T03:33:20;11.68;;;6.18;;
70132;SDS011;57495;49.922;7.966;2024-02-15T03:35:26;13.07;;;6.50;;
70132;SDS011;57495;49.922;7.966;2024-02-15T03:37:28;12.40;;;6.15;;
70132;SDS011;57495;49.922;7.966;2024-02-15T03:39:30;10.70;;;6.05;;
70132;SDS011;57495;49.922;7.966;2024-02-15T03:41:33;11.95;;;6.03;;
70132;SDS011;57495;49.922;7.966;2024-02-15T03:43:34;12.20;;;6.38;;
70132;SDS011;57495;49.922;7.966;2024-02-15T03:45:35;14.07;;;6.57;;
70132;SDS011;57495;49.922;7.966;2024-02-15T03:47:38;13.85;;;6.82;;
70132;SDS011;57495;49.922;7.966;2024-02-15T03:49:39;11.80;;;6.50;;
70132;SDS011;57495;49.922;7.966;2024-02-15T03:51:42;14.17;;;6.87;;
70132;SDS011;57495;49.922;7.966;2024-02-15T03:53:45;12.55;;;6.30;;
70132;SDS011;57495;49.922;7.966;2024-02-15T03:55:48;11.43;;;6.15;;
70132;SDS011;57495;49.922;7.966;2024-02-15T03:57:53;13.05;;;6.93;;
70132;SDS011;57495;49.922;7.966;2024-02-15T03:59:56;11.73;;;6.22;;
70132;SDS011;57495;49.922;7.966;2024-02-15T04:01:58;12.03;;;6.10;;
70132;SDS011;57495;49.922;7.966;2024-02-15T04:04:02;12.90;;;6.60;;
70132;SDS011;57495;49.922;7.966;2024-02-15T04:06:03;11.52;;;6.60;;
70132;SDS011;57495;49.922;7.966;2024-02-15T04:08:05;9.95;;;5.97;;
70132;SDS011;57495;49.922;7.966;2024-02-15T04:10:07;12.95;;;6.50;;
70132;SDS011;57495;49.922;7.966;2024-02-15T04:12:08;10.57;;;5.97;;
70132;SDS011;57495;49.922;7.966;2024-02-15T04:14:09;13.40;;;6.50;;
70132;SDS011;57495;49.922;7.966;2024-02-15T04:16:11;11.38;;;6.13;;
70132;SDS011;57495;49.922;7.966;2024-02-15T04:18:13;13.20;;;6.40;;
70132;SDS011;57495;49.922;7.966;2024-02-15T04:20:16;12.45;;;6.45;;
70132;SDS011;57495;49.922;7.966;2024-02-15T04:22:18;11.77;;;6.50;;
70132;SDS011;57495;49.922;7.966;2024-02-15T04:24:19;10.60;;;5.70;;
70132;SDS011;57495;49.922;7.966;2024-02-15T04:26:21;10.38;;;6.47;;
70132;SDS011;57495;49.922;7.966;2024-02-15T04:28:26;13.90;;;6.28;;
70132;SDS011;57495;49.922;7.966;2024-02-15T04:30:28;11.43;;;7.00;;
70132;SDS011;57495;49.922;7.966;2024-02-15T04:32:30;11.13;;;6.63;;
70132;SDS011;57495;49.922;7.966;2024-02-15T04:34:33;11.45;;;5.85;;
70132;SDS011;57495;49.922;7.966;2024-02-15T04:36:36;14.35;;;6.50;;
70132;SDS011;57495;49.922;7.966;2024-02-15T04:38:38;14.38;;;6.13;;
70132;SDS011;57495;49.922;7.966;2024-02-15T04:40:40;10.20;;;6.68;;
70132;SDS011;57495;49.922;7.966;2024-02-15T04:42:41;13.27;;;6.27;;
70132;SDS011;57495;49.922;7.966;2024-02-15T04:44:44;11.48;;;6.30;;
70132;SDS011;57495;49.922;7.966;2024-02-15T04:46:46;10.70;;;6.47;;
70132;SDS011;57495;49.922;7.966;2024-02-15T04:48:49;12.05;;;6.45;;
70132;SDS011;57495;49.922;7.966;2024-02-15T04:50:50;14.32;;;6.43;;
70132;SDS011;57495;49.922;7.966;2024-02-15T04:52:53;11.37;;;6.23;;
70132;SDS011;57495;49.922;7.966;2024-02-15T04:54:55;13.70;;;6.65;;
70132;SDS011;57495;49.922;7.966;2024-02-15T04:56:58;15.68;;;6.53;;
70132;SDS011;57495;49.922;7.966;2024-02-15T04:59:00;13.13;;;6.03;;
70132;SDS011;57495;49.922;7.966;2024-02-15T05:01:02;10.18;;;6.28;;
70132;SDS011;57495;49.922;7.966;2024-02-15T05:03:04;10.20;;;5.77;;
70132;SDS011;57495;49.922;7.966;2024-02-15T05:05:08;9.38;;;5.85;;
70132;SDS011;57495;49.922;7.966;2024-02-15T05:07:09;11.68;;;6.10;;
70132;SDS011;57495;49.922;7.966;2024-02-15T05:09:12;11.50;;;6.15;;
70132;SDS011;57495;49.922;7.966;2024-02-15T05:11:13;13.63;;;6.40;;
70132;SDS011;57495;49.922;7.966;2024-02-15T05:13:17;9.93;;;6.95;;
70132;SDS011;57495;49.922;7.966;2024-02-15T05:15:19;11.32;;;7.43;;
70132;SDS011;57495;49.922;7.966;2024-02-15T05:17:23;15.50;;;8.55;;
70132;SDS011;57495;49.922;7.966;2024-02-15T05:19:24;12.32;;;7.32;;
70132;SDS011;57495;49.922;7.966;2024-02-15T05:21:25;11.23;;;7.13;;
70132;SDS011;57495;49.922;7.966;2024-02-15T05:23:27;10.63;;;6.72;;
70132;SDS011;57495;49.922;7.966;2024-02-15T05:25:29;15.85;;;8.25;;
70132;SDS011;57495;49.922;7.966;2024-02-15T05:27:33;14.60;;;8.85;;
70132;SDS011;57495;49.922;7.966;2024-02-15T05:29:34;16.77;;;7.82;;
70132;SDS011;57495;49.922;7.966;2024-02-15T05:31:36;13.90;;;7.60;;
70132;SDS011;57495;49.922;7.966;2024-02-15T05:33:38;9.77;;;6.43;;
70132;SDS011;57495;49.922;7.966;2024-02-15T05:35:42;10.90;;;6.78;;
70132;SDS011;57495;49.922;7.966;2024-02-15T05:37:49;14.00;;;8.18;;
70132;SDS011;57495;49.922;7.966;2024-02-15T05:39:52;13.98;;;7.45;;
70132;SDS011;57495;49.922;7.966;2024-02-15T05:41:55;11.82;;;7.22;;
70132;SDS011;57495;49.922;7.966;2024-02-15T05:44:00;12.35;;;6.50;;
70132;SDS011;57495;49.922;7.966;2024-02-15T05:46:05;14.57;;;6.90;;
70132;SDS011;57495;49.922;7.966;2024-02-15T05:48:06;12.20;;;7.05;;
70132;SDS011;57495;49.922;7.966;2024-02-15T05:50:08;13.18;;;7.30;;
70132;SDS011;57495;49.922;7.966;2024-02-15T05:52:10;11.73;;;6.93;;
70132;SDS011;57495;49.922;7.966;2024-02-15T05:54:12;13.88;;;7.05;;
70132;SDS011;57495;49.922;7.966;2024-02-15T05:56:14;13.60;;;7.50;;
70132;SDS011;57495;49.922;7.966;2024-02-15T05:58:15;12.57;;;7.33;;
70132;SDS011;57495;49.922;7.966;2024-02-15T06:00:17;12.38;;;6.93;;
70132;SDS011;57495;49.922;7.966;2024-02-15T06:02:19;11.52;;;6.28;;
70132;SDS011;57495;49.922;7.966;2024-02-15T06:04:20;12.68;;;6.20;;
70132;SDS011;57495;49.922;7.966;2024-02-15T06:06:23;8.77;;;5.35;;
70132;SDS011;57495;49.922;7.966;2024-02-15T06:08:26;10.93;;;6.22;;
70132;SDS011;57495;49.922;7.966;2024-02-15T06:10:29;10.07;;;6.03;;
70132;SDS011;57495;49.922;7.966;2024-02-15T06:12:31;14.05;;;5.93;;
70132;SDS011;57495;49.922;7.966;2024-02-15T06:14:33;11.65;;;5.75;;
70132;SDS011;57495;49.922;7.966;2024-02-15T06:16:41;11.55;;;4.97;;
70132;SDS011;57495;49.922;7.966;2024-02-15T06:18:43;10.27;;;4.78;;
70132;SDS011;57495;49.922;7.966;2024-02-15T06:20:43;9.98;;;4.53;;
70132;SDS011;57495;49.922;7.966;2024-02-15T06:22:47;12.47;;;4.90;;
70132;SDS011;57495;49.922;7.966;2024-02-15T06:24:48;8.25;;;3.90;;
70132;SDS011;57495;49.922;7.966;2024-02-15T06:26:50;11.73;;;4.47;;
70132;SDS011;57495;49.922;7.966;2024-02-15T06:28:57;11.63;;;4.22;;
70132;SDS011;57495;49.922;7.966;2024-02-15T06:31:18;11.63;;;4.53;;
70132;SDS011;57495;49.922;7.966;2024-02-15T06:33:37;10.93;;;4.07;;
70132;SDS011;57495;49.922;7.966;2024-02-15T06:35:56;7.45;;;3.67;;
70132;SDS011;57495;49.922;7.966;2024-02-15T06:38:15;10.68;;;3.65;;
70132;SDS011;57495;49.922;7.966;2024-02-15T06:40:34;9.50;;;4.15;;
70132;SDS011;57495;49.922;7.966;2024-02-15T06:42:36;12.40;;;5.18;;
70132;SDS011;57495;49.922;7.966;2024-02-15T06:44:37;9.47;;;5.50;;
70132;SDS011;57495;49.922;7.966;2024-02-15T06:46:41;11.07;;;6.18;;
70132;SDS011;57495;49.922;7.966;2024-02-15T06:48:43;9.80;;;5.95;;
70132;SDS011;57495;49.922;7.966;2024-02-15T06:50:47;10.82;;;5.28;;
70132;SDS011;57495;49.922;7.966;2024-02-15T06:52:49;13.75;;;6.10;;
70132;SDS011;57495;49.922;7.966;2024-02-15T06:54:51;9.83;;;5.33;;
70132;SDS011;57495;49.922;7.966;2024-02-15T06:56:53;12.52;;;6.05;;
70132;SDS011;57495;49.922;7.966;2024-02-15T06:58:56;11.00;;;5.13;;
70132;SDS011;57495;49.922;7.966;2024-02-15T07:00:58;9.57;;;4.45;;
70132;SDS011;57495;49.922;7.966;2024-02-15T07:03:01;11.32;;;5.10;;
70132;SDS011;57495;49.922;7.966;2024-02-15T07:05:04;9.43;;;4.90;;
70132;SDS011;57495;49.922;7.966;2024-02-15T07:07:06;9.90;;;4.90;;
70132;SDS011;57495;49.922;7.966;2024-02-15T07:09:08;9.13;;;4.55;;
70132;SDS011;57495;49.922;7.966;2024-02-15T07:11:12;11.68;;;4.85;;
70132;SDS011;57495;49.922;7.966;2024-02-15T07:13:13;10.85;;;5.20;;
70132;SDS011;57495;49.922;7.966;2024-02-15T07:15:15;10.67;;;5.37;;
70132;SDS011;57495;49.922;7.966;2024-02-15T07:17:17;8.73;;;5.00;;
70132;SDS011;57495;49.922;7.966;2024-02-15T07:19:21;10.95;;;5.57;;
70132;SDS011;57495;49.922;7.966;2024-02-15T07:21:22;10.02;;;6.18;;
70132;SDS011;57495;49.922;7.966;2024-02-15T07:23:26;13.07;;;6.25;;
70132;SDS011;57495;49.922;7.966;2024-02-15T07:25:28;11.97;;;6.03;;
70132;SDS011;57495;49.922;7.966;2024-02-15T07:27:30;12.77;;;6.55;;
70132;SDS011;57495;49.922;7.966;2024-02-15T07:29:34;10.15;;;6.55;;
70132;SDS011;57495;49.922;7.966;2024-02-15T07:31:37;13.07;;;6.55;;
70132;SDS011;57495;49.922;7.966;2024-02-15T07:33:39;10.25;;;6.30;;
70132;SDS011;57495;49.922;7.966;2024-02-15T07:35:40;10.63;;;5.93;;
70132;SDS011;57495;49.922;7.966;2024-02-15T07:37:50;11.57;;;6.40;;
70132;SDS011;57495;49.922;7.966;2024-02-15T07:39:53;13.83;;;5.97;;
70132;SDS011;57495;49.922;7.966;2024-02-15T07:41:54;13.88;;;7.03;;
70132;SDS011;57495;49.922;7.966;2024-02-15T07:43:58;12.73;;;6.45;;
70132;SDS011;57495;49.922;7.966;2024-02-15T07:46:01;11.93;;;6.25;;
70132;SDS011;57495;49.922;7.966;2024-02-15T07:48:01;11.40;;;6.50;;
70132;SDS011;57495;49.922;7.966;2024-02-15T07:50:04;12.10;;;6.43;;
70132;SDS011;57495;49.922;7.966;2024-02-15T07:52:07;11.05;;;5.88;;
70132;SDS011;57495;49.922;7.966;2024-02-15T07:54:09;10.50;;;6.20;;
70132;SDS011;57495;49.922;7.966;2024-02-15T07:56:10;11.95;;;4.93;;
70132;SDS011;57495;49.922;7.966;2024-02-15T07:58:12;12.10;;;6.45;;
70132;SDS011;57495;49.922;7.966;2024-02-15T08:00:14;11.52;;;5.30;;
70132;SDS011;57495;49.922;7.966;2024-02-15T08:02:16;12.45;;;5.38;;
70132;SDS011;57495;49.922;7.966;2024-02-15T08:04:22;8.57;;;5.23;;
70132;SDS011;57495;49.922;7.966;2024-02-15T08:06:24;11.20;;;5.05;;
70132;SDS011;57495;49.922;7.966;2024-02-15T08:08:29;11.95;;;5.75;;
70132;SDS011;57495;49.922;7.966;2024-02-15T08:10:29;9.63;;;5.45;;
70132;SDS011;57495;49.922;7.966;2024-02-15T08:12:31;9.55;;;5.43;;
70132;SDS011;57495;49.922;7.966;2024-02-15T08:14:32;10.63;;;5.80;;
70132;SDS011;57495;49.922;7.966;2024-02-15T08:16:34;11.27;;;5.38;;
70132;SDS011;57495;49.922;7.966;2024-02-15T08:18:36;11.70;;;5.53;;
70132;SDS011;57495;49.922;7.966;2024-02-15T08:20:37;12.85;;;5.20;;
70132;SDS011;57495;49.922;7.966;2024-02-15T08:22:40;12.20;;;5.20;;
70132;SDS011;57495;49.922;7.966;2024-02-15T08:24:45;10.65;;;5.50;;
70132;SDS011;57495;49.922;7.966;2024-02-15T08:26:47;11.43;;;5.90;;
70132;SDS011;57495;49.922;7.966;2024-02-15T08:28:49;15.07;;;6.00;;
70132;SDS011;57495;49.922;7.966;2024-02-15T08:30:51;14.40;;;6.95;;
70132;SDS011;57495;49.922;7.966;2024-02-15T08:32:53;15.32;;;8.85;;
70132;SDS011;57495;49.922;7.966;2024-02-15T08:34:54;15.00;;;9.05;;
70132;SDS011;57495;49.922;7.966;2024-02-15T08:36:55;15.75;;;9.05;;
70132;SDS011;57495;49.922;7.966;2024-02-15T08:38:58;18.92;;;9.68;;
70132;SDS011;57495;49.922;7.966;2024-02-15T08:41:01;26.38;;;15.60;;
70132;SDS011;57495;49.922;7.966;2024-02-15T08:43:03;23.83;;;13.45;;
70132;SDS011;57495;49.922;7.966;2024-02-15T08:45:05;21.80;;;13.82;;
70132;SDS011;57495;49.922;7.966;2024-02-15T08:47:08;17.77;;;10.02;;
70132;SDS011;57495;49.922;7.966;2024-02-15T08:49:10;14.40;;;7.38;;
70132;SDS011;57495;49.922;7.966;2024-02-15T08:51:13;13.05;;;6.72;;
70132;SDS011;57495;49.922;7.966;2024-02-15T08:53:15;11.77;;;7.03;;
70132;SDS011;57495;49.922;7.966;2024-02-15T08:55:19;12.25;;;7.18;;
70132;SDS011;57495;49.922;7.966;2024-02-15T08:57:25;9.52;;;6.25;;
70132;SDS011;57495;49.922;7.966;2024-02-15T08:59:26;12.10;;;7.35;;
70132;SDS011;57495;49.922;7.966;2024-02-15T09:01:28;12.48;;;6.82;;
70132;SDS011;57495;49.922;7.966;2024-02-15T09:03:30;11.48;;;7.38;;
70132;SDS011;57495;49.922;7.966;2024-02-15T09:05:31;12.35;;;7.55;;
70132;SDS011;57495;49.922;7.966;2024-02-15T09:07:32;11.45;;;7.07;;
70132;SDS011;57495;49.922;7.966;2024-02-15T09:09:33;11.87;;;7.37;;
70132;SDS011;57495;49.922;7.966;2024-02-15T09:11:36;12.07;;;7.35;;
70132;SDS011;57495;49.922;7.966;2024-02-15T09:13:39;11.85;;;7.60;;
70132;SDS011;57495;49.922;7.966;2024-02-15T09:15:40;13.18;;;8.20;;
70132;SDS011;57495;49.922;7.966;2024-02-15T09:17:41;13.45;;;8.13;;
70132;SDS011;57495;49.922;7.966;2024-02-15T09:19:46;12.98;;;8.30;;
70132;SDS011;57495;49.922;7.966;2024-02-15T09:21:49;13.48;;;7.95;;
70132;SDS011;57495;49.922;7.966;2024-02-15T09:23:50;13.07;;;8.20;;
70132;SDS011;57495;49.922;7.966;2024-02-15T09:25:51;12.75;;;8.13;;
70132;SDS011;57495;49.922;7.966;2024-02-15T09:27:53;14.13;;;8.68;;
70132;SDS011;57495;49.922;7.966;2024-02-15T09:29:56;15.65;;;9.23;;
70132;SDS011;57495;49.922;7.966;2024-02-15T09:31:57;11.80;;;7.18;;
70132;SDS011;57495;49.922;7.966;2024-02-15T09:34:02;13.20;;;7.80;;
70132;SDS011;57495;49.922;7.966;2024-02-15T09:36:06;14.90;;;8.52;;
70132;SDS011;57495;49.922;7.966;2024-02-15T09:38:07;14.50;;;8.10;;
70132;SDS011;57495;49.922;7.966;2024-02-15T09:40:09;13.10;;;7.75;;
70132;SDS011;57495;49.922;7.966;2024-02-15T09:42:12;13.30;;;7.60;;
70132;SDS011;57495;49.922;7.966;2024-02-15T09:44:13;12.55;;;5.72;;
70132;SDS011;57495;49.922;7.966;2024-02-15T09:46:16;10.98;;;4.88;;
70132;SDS011;57495;49.922;7.966;2024-02-15T09:48:17;10.35;;;4.82;;
70132;SDS011;57495;49.922;7.966;2024-02-15T09:50:21;9.73;;;4.40;;
70132;SDS011;57495;49.922;7.966;2024-02-15T09:52:27;9.60;;;4.32;;
70132;SDS011;57495;49.922;7.966;2024-02-15T09:54:32;9.77;;;3.58;;
70132;SDS011;57495;49.922;7.966;2024-02-15T09:56:34;6.80;;;3.33;;
70132;SDS011;57495;49.922;7.966;2024-02-15T09:58:37;8.95;;;3.55;;
70132;SDS011;57495;49.922;7.966;2024-02-15T10:00:39;8.13;;;2.83;;
70132;SDS011;57495;49.922;7.966;2024-02-15T10:02:42;7.15;;;2.58;;
70132;SDS011;57495;49.922;7.966;2024-02-15T10:04:44;9.35;;;2.95;;
70132;SDS011;57495;49.922;7.966;2024-02-15T10:06:46;6.57;;;3.00;;
70132;SDS011;57495;49.922;7.966;2024-02-15T10:08:47;6.07;;;2.70;;
70132;SDS011;57495;49.922;7.966;2024-02-15T10:10:55;6.30;;;2.78;;
70132;SDS011;57495;49.922;7.966;2024-02-15T10:13:06;7.07;;;3.10;;
70132;SDS011;57495;49.922;7.966;2024-02-15T10:15:32;6.38;;;3.00;;
70132;SDS011;57495;49.922;7.966;2024-02-15T10:17:35;8.48;;;3.78;;
70132;SDS011;57495;49.922;7.966;2024-02-15T10:19:38;8.48;;;2.58;;
70132;SDS011;57495;49.922;7.966;2024-02-15T10:21:42;7.67;;;2.60;;
70132;SDS011;57495;49.922;7.966;2024-02-15T10:23:43;9.80;;;4.07;;
70132;SDS011;57495;49.922;7.966;2024-02-15T10:25:44;8.10;;;3.05;;
70132;SDS011;57495;49.922;7.966;2024-02-15T10:27:47;5.78;;;2.30;;
70132;SDS011;57495;49.922;7.966;2024-02-15T10:29:47;6.17;;;2.50;;
70132;SDS011;57495;49.922;7.966;2024-02-15T10:31:52;6.32;;;2.47;;
70132;SDS011;57495;49.922;7.966;2024-02-15T10:33:59;6.30;;;3.35;;
70132;SDS011;57495;49.922;7.966;2024-02-15T10:36:08;7.93;;;3.40;;
70132;SDS011;57495;49.922;7.966;2024-02-15T10:38:13;6.68;;;2.70;;
70132;SDS011;57495;49.922;7.966;2024-02-15T10:40:17;7.07;;;2.72;;
70132;SDS011;57495;49.922;7.966;2024-02-15T10:42:19;7.10;;;2.92;;
70132;SDS011;57495;49.922;7.966;2024-02-15T10:44:21;9.55;;;3.92;;
70132;SDS011;57495;49.922;7.966;2024-02-15T10:46:24;9.57;;;3.63;;
70132;SDS011;57495;49.922;7.966;2024-02-15T10:48:25;10.50;;;3.90;;
70132;SDS011;57495;49.922;7.966;2024-02-15T10:50:28;7.82;;;3.00;;
70132;SDS011;57495;49.922;7.966;2024-02-15T10:52:31;8.82;;;2.67;;
70132;SDS011;57495;49.922;7.966;2024-02-15T10:54:40;6.82;;;2.95;;
70132;SDS011;57495;49.922;7.966;2024-02-15T10:56:43;7.33;;;2.33;;
70132;SDS011;57495;49.922;7.966;2024-02-15T10:58:49;5.68;;;2.42;;
70132;SDS011;57495;49.922;7.966;2024-02-15T11:00:52;6.35;;;2.20;;
70132;SDS011;57495;49.922;7.966;2024-02-15T11:02:58;6.68;;;2.30;;
70132;SDS011;57495;49.922;7.966;2024-02-15T11:05:02;5.95;;;3.00;;
70132;SDS011;57495;49.922;7.966;2024-02-15T11:07:09;6.63;;;2.30;;
70132;SDS011;57495;49.922;7.966;2024-02-15T11:09:13;6.35;;;2.05;;
70132;SDS011;57495;49.922;7.966;2024-02-15T11:11:15;6.22;;;1.80;;
70132;SDS011;57495;49.922;7.966;2024-02-15T11:13:18;7.57;;;2.35;;
70132;SDS011;57495;49.922;7.966;2024-02-15T11:17:46;6.90;;;1.90;;
70132;SDS011;57495;49.922;7.966;2024-02-15T11:19:54;5.18;;;1.65;;
70132;SDS011;57495;49.922;7.966;2024-02-15T11:21:57;6.32;;;1.70;;
70132;SDS011;57495;49.922;7.966;2024-02-15T11:26:43;6.05;;;2.22;;
70132;SDS011;57495;49.922;7.966;2024-02-15T11:28:48;6.13;;;2.90;;
70132;SDS011;57495;49.922;7.966;2024-02-15T11:30:50;7.45;;;2.50;;
70132;SDS011;57495;49.922;7.966;2024-02-15T11:32:51;7.22;;;2.35;;
70132;SDS011;57495;49.922;7.966;2024-02-15T11:34:57;6.73;;;2.20;;
70132;SDS011;57495;49.922;7.966;2024-02-15T11:37:09;8.27;;;3.88;;
70132;SDS011;57495;49.922;7.966;2024-02-15T11:41:44;8.57;;;4.13;;
70132;SDS011;57495;49.922;7.966;2024-02-15T11:44:05;9.25;;;3.95;;
70132;SDS011;57495;49.922;7.966;2024-02-15T11:46:07;9.83;;;4.30;;
70132;SDS011;57495;49.922;7.966;2024-02-15T11:48:11;8.68;;;3.95;;
70132;SDS011;57495;49.922;7.966;2024-02-15T11:50:13;7.40;;;3.97;;
70132;SDS011;57495;49.922;7.966;2024-02-15T11:52:15;11.23;;;3.78;;
70132;SDS011;57495;49.922;7.966;2024-02-15T11:54:20;9.95;;;3.85;;
70132;SDS011;57495;49.922;7.966;2024-02-15T11:56:23;8.03;;;3.90;;
70132;SDS011;57495;49.922;7.966;2024-02-15T11:58:24;9.85;;;3.55;;
70132;SDS011;57495;49.922;7.966;2024-02-15T12:00:41;7.30;;;3.28;;
70132;SDS011;57495;49.922;7.966;2024-02-15T12:03:00;8.32;;;3.53;;
70132;SDS011;57495;49.922;7.966;2024-02-15T12:05:19;26.30;;;7.70;;
70132;SDS011;57495;49.922;7.966;2024-02-15T12:07:40;9.37;;;4.97;;
70132;SDS011;57495;49.922;7.966;2024-02-15T12:09:59;10.52;;;4.72;;
70132;SDS011;57495;49.922;7.966;2024-02-15T12:12:19;16.92;;;8.25;;
70132;SDS011;57495;49.922;7.966;2024-02-15T12:14:38;48.22;;;36.30;;
70132;SDS011;57495;49.922;7.966;2024-02-15T12:16:58;657.22;;;592.28;;
70132;SDS011;57495;49.922;7.966;2024-02-15T12:19:20;900.17;;;805.07;;
70132;SDS011;57495;49.922;7.966;2024-02-15T12:21:24;1177.55;;;771.58;;
70132;SDS011;57495;49.922;7.966;2024-02-15T12:23:28;283.67;;;172.35;;